Grayzone — LXGV — position and weather

sailwx.info

Track history (hours):
 
Tides and Currents Weather Stations Pressure Air Temp Water Temp Dewpoint Dewpoint Depression Visibility Wind Speed Wind Dir Waves Ship Positions

Grayzone

Last reported at 2017-Oct-18 09:42 UTC. Time now 2017-Oct-20 08:50 UTC.
Position N 36°51' W 075°50'.

; draft 2.6 m.

Type: Pilot. MMSI: 23009000.

Date/timePositionNaut miles runAvg speedWind from/ knotsBaromVisibWave heightAir tempDewpointWater temp
2017-Oct-18 09:42N 36°51' W 075°50'210.7
2017-Oct-18 09:30N 36°52' W 075°52'5 9.9
2017-Oct-18 09:00N 36°56' W 075°57'4 8.6
2017-Oct-18 08:29N 36°59' W 076°00'4 9.1
2017-Oct-18 08:00N 37°02' W 076°04'57 9.2
2017-Oct-18 01:52N 37°59' W 076°11'512.2
2017-Oct-18 01:29N 38°03' W 076°13'612.5
2017-Oct-18 01:00N 38°09' W 076°14'3513.0
2017-Oct-17 22:18N 38°43' W 076°26'412.7
2017-Oct-17 22:00N 38°47' W 076°25'612.5
2017-Oct-17 21:31N 38°53' W 076°24'510.6
2017-Oct-17 21:00N 38°58' W 076°23'4 8.0
2017-Oct-17 20:30N 39°02' W 076°23'4 8.0
2017-Oct-17 20:00N 39°06' W 076°24'3 6.7
2017-Oct-17 19:30N 39°09' W 076°25'3 6.9
2017-Oct-17 19:00N 39°11' W 076°28'3 6.9
2017-Oct-17 18:31N 39°13' W 076°32'2 4.7
2017-Oct-17 18:00N 39°15' W 076°34'0 0.4
2017-Oct-17 17:28N 39°15' W 076°34'0 0.0
2017-Oct-17 16:58N 39°15' W 076°34'0 0.0
2017-Oct-17 16:28N 39°15' W 076°34'0 0.0
2017-Oct-17 15:58N 39°15' W 076°34'0 0.0
2017-Oct-17 15:28N 39°15' W 076°34'0 0.0
2017-Oct-17 14:58N 39°15' W 076°34'0 0.0
2017-Oct-17 14:28N 39°15' W 076°34'0 0.0
2017-Oct-17 13:58N 39°15' W 076°34'0 0.0
2017-Oct-17 13:28N 39°15' W 076°34'0 0.0
2017-Oct-17 12:58N 39°15' W 076°34'0 0.0
2017-Oct-17 12:28N 39°15' W 076°34'0 0.0
2017-Oct-17 11:58N 39°15' W 076°34'0 0.0
2017-Oct-17 11:28N 39°15' W 076°34'0 0.0
2017-Oct-17 10:58N 39°15' W 076°34'0 0.0
2017-Oct-17 10:28N 39°15' W 076°34'0 0.0
2017-Oct-17 09:58N 39°15' W 076°34'0 0.0
2017-Oct-17 09:28N 39°15' W 076°34'0 0.0
2017-Oct-17 08:58N 39°15' W 076°34'0 0.0
2017-Oct-17 08:28N 39°15' W 076°34'0 0.0
2017-Oct-17 07:58N 39°15' W 076°34'0 0.0
2017-Oct-17 07:28N 39°15' W 076°34'0 0.0
2017-Oct-17 06:58N 39°15' W 076°34'0 0.0
2017-Oct-17 06:28N 39°15' W 076°34'0 0.0
2017-Oct-17 05:58N 39°15' W 076°34'0 0.0
2017-Oct-17 05:28N 39°15' W 076°34'0 0.0
2017-Oct-17 04:58N 39°15' W 076°34'0 0.0
2017-Oct-17 04:28N 39°15' W 076°34'0 0.0
2017-Oct-17 03:58N 39°15' W 076°34'0 0.0
2017-Oct-17 03:16N 39°15' W 076°34'0 0.0
2017-Oct-17 02:58N 39°15' W 076°34'0 0.0
2017-Oct-17 02:28N 39°15' W 076°34'0 0.0
2017-Oct-17 01:58N 39°15' W 076°34'0 0.0
2017-Oct-17 01:28N 39°15' W 076°34'0 0.0
2017-Oct-17 00:58N 39°15' W 076°34'0 0.0
2017-Oct-17 00:28N 39°15' W 076°34'0 0.0
2017-Oct-16 23:58N 39°15' W 076°34'0 0.0
2017-Oct-16 23:28N 39°15' W 076°34'0 0.0
2017-Oct-16 22:58N 39°15' W 076°34'0 0.0
2017-Oct-16 22:28N 39°15' W 076°34'0 0.0
2017-Oct-16 21:58N 39°15' W 076°34'0 0.0
2017-Oct-16 21:28N 39°15' W 076°34'0 0.0
2017-Oct-16 20:59N 39°15' W 076°34'0 0.0
2017-Oct-16 20:28N 39°15' W 076°34'0 0.0
2017-Oct-16 19:58N 39°15' W 076°34'0 0.0
2017-Oct-16 19:29N 39°15' W 076°34'0 0.0
2017-Oct-16 18:59N 39°15' W 076°34'0 0.0
2017-Oct-16 18:28N 39°15' W 076°34'0 0.0
2017-Oct-16 17:58N 39°15' W 076°34'0 0.0
2017-Oct-16 17:28N 39°15' W 076°34'0 0.0
2017-Oct-16 16:58N 39°15' W 076°34'0 0.0
2017-Oct-16 16:28N 39°15' W 076°34'0 0.0
2017-Oct-16 15:58N 39°15' W 076°34'0 0.0
2017-Oct-16 15:28N 39°15' W 076°34'0 0.0
2017-Oct-16 14:58N 39°15' W 076°34'0 0.0
2017-Oct-16 14:28N 39°15' W 076°34'0 0.0
2017-Oct-16 13:28N 39°15' W 076°34'0 0.0
2017-Oct-16 12:55N 39°15' W 076°34'0 0.0
2017-Oct-16 12:28N 39°15' W 076°34'0 0.0
2017-Oct-16 11:58N 39°15' W 076°34'0 0.0
2017-Oct-16 11:28N 39°15' W 076°34'0 0.0
2017-Oct-16 10:58N 39°15' W 076°34'0 0.0
2017-Oct-16 10:28N 39°15' W 076°34'0 0.0
2017-Oct-16 09:58N 39°15' W 076°34'0 0.0
2017-Oct-16 09:28N 39°15' W 076°34'0 0.0
2017-Oct-16 08:58N 39°15' W 076°34'0 0.0
2017-Oct-16 08:28N 39°15' W 076°34'0 0.0
2017-Oct-16 07:58N 39°15' W 076°34'0 0.0
2017-Oct-16 07:28N 39°15' W 076°34'0 0.0
2017-Oct-16 06:58N 39°15' W 076°34'0 0.0
2017-Oct-16 06:28N 39°15' W 076°34'0 0.0
2017-Oct-16 05:58N 39°15' W 076°34'0 0.0
2017-Oct-16 05:28N 39°15' W 076°34'0 0.0
2017-Oct-16 04:58N 39°15' W 076°34'0 0.0
2017-Oct-16 04:28N 39°15' W 076°34'0 0.0
2017-Oct-16 03:58N 39°15' W 076°34'0 0.0
2017-Oct-16 03:28N 39°15' W 076°34'0 0.0
2017-Oct-16 02:58N 39°15' W 076°34'0 0.0
2017-Oct-16 02:28N 39°15' W 076°34'0 0.0
2017-Oct-16 01:58N 39°15' W 076°34'0 0.0
2017-Oct-16 01:28N 39°15' W 076°34'0 0.0
2017-Oct-16 00:58N 39°15' W 076°34'0 0.0
2017-Oct-16 00:25N 39°15' W 076°34'0 0.0
2017-Oct-15 23:58N 39°15' W 076°34'0 0.0
2017-Oct-15 23:28N 39°15' W 076°34'0 0.0
2017-Oct-15 22:58N 39°15' W 076°34'0 0.0
2017-Oct-15 22:30N 39°15' W 076°34'1 1.6
2017-Oct-15 22:00N 39°15' W 076°33'4 7.7
2017-Oct-15 21:30N 39°12' W 076°30'510.9
2017-Oct-15 21:00N 39°09' W 076°24'612.1
2017-Oct-15 20:30N 39°03' W 076°23'612.0
2017-Oct-15 20:00N 38°57' W 076°24'3 5.1
2017-Oct-15 19:30N 38°54' W 076°25'1 1.1
2017-Oct-15 19:01N 38°55' W 076°25'0 0.1
2017-Oct-15 18:28N 38°55' W 076°25'0 0.0
2017-Oct-15 17:58N 38°55' W 076°25'0 0.0
2017-Oct-15 17:28N 38°55' W 076°25'0 0.0
2017-Oct-15 16:58N 38°55' W 076°25'0 0.0
2017-Oct-15 16:31N 38°55' W 076°25'0 0.0
2017-Oct-15 15:58N 38°55' W 076°25'0 0.0
2017-Oct-15 15:31N 38°55' W 076°25'0 0.2
2017-Oct-15 14:58N 38°55' W 076°25'0 0.2
2017-Oct-15 13:58N 38°55' W 076°25'0 0.1
2017-Oct-15 13:31N 38°55' W 076°25'0 0.0
2017-Oct-15 13:01N 38°55' W 076°25'0 0.0
2017-Oct-15 12:31N 38°55' W 076°25'0 0.0
2017-Oct-15 12:00N 38°55' W 076°25'0 0.0
2017-Oct-15 11:28N 38°55' W 076°25'0 0.0
2017-Oct-15 10:58N 38°55' W 076°25'0 0.1
2017-Oct-15 10:31N 38°55' W 076°25'0 0.2
2017-Oct-15 10:01N 38°55' W 076°25'0 0.2
2017-Oct-15 09:25N 38°55' W 076°25'0 0.1
2017-Oct-15 09:01N 38°55' W 076°25'0 0.0
2017-Oct-15 08:28N 38°55' W 076°25'0 0.1
2017-Oct-15 08:00N 38°55' W 076°25'0 0.0
2017-Oct-15 07:30N 38°55' W 076°25'0 0.0
2017-Oct-15 07:01N 38°55' W 076°25'0 0.0
2017-Oct-15 06:30N 38°55' W 076°25'0 0.0
2017-Oct-15 05:58N 38°55' W 076°25'0 0.0
2017-Oct-15 05:31N 38°55' W 076°25'0 0.0
2017-Oct-15 05:00N 38°55' W 076°25'0 0.0
2017-Oct-15 04:30N 38°55' W 076°25'0 0.0
2017-Oct-15 03:57N 38°55' W 076°25'0 0.1
2017-Oct-15 03:28N 38°55' W 076°25'0 0.2
2017-Oct-15 03:01N 38°55' W 076°25'0 0.3
2017-Oct-15 02:31N 38°55' W 076°25'0 0.1
2017-Oct-15 02:00N 38°55' W 076°25'0 0.0
2017-Oct-15 01:30N 38°55' W 076°25'0 0.0
2017-Oct-15 01:00N 38°55' W 076°25'0 0.0
2017-Oct-15 00:30N 38°55' W 076°25'0 0.0
2017-Oct-15 00:00N 38°55' W 076°25'0 0.0
2017-Oct-14 23:30N 38°55' W 076°25'0 0.0
2017-Oct-14 23:00N 38°55' W 076°25'0 0.0
2017-Oct-14 22:30N 38°55' W 076°25'0 0.0
2017-Oct-14 22:00N 38°55' W 076°25'0 0.0
2017-Oct-14 21:30N 38°55' W 076°25'0 0.0
2017-Oct-14 21:00N 38°55' W 076°25'0 0.0
2017-Oct-14 20:30N 38°55' W 076°25'0 0.1
2017-Oct-14 20:00N 38°55' W 076°25'0 0.1
2017-Oct-14 19:30N 38°55' W 076°25'0 0.1
2017-Oct-14 19:01N 38°55' W 076°25'0 0.1
2017-Oct-14 18:30N 38°55' W 076°25'0 0.0
2017-Oct-14 18:01N 38°55' W 076°25'0 0.1
2017-Oct-14 17:30N 38°55' W 076°25'0 0.1
2017-Oct-14 17:00N 38°55' W 076°25'0 0.1
2017-Oct-14 16:30N 38°55' W 076°25'0 0.0
2017-Oct-14 16:00N 38°55' W 076°25'0 0.0
2017-Oct-14 15:30N 38°55' W 076°25'0 0.0
2017-Oct-14 15:01N 38°55' W 076°25'0 0.0
2017-Oct-14 14:31N 38°55' W 076°25'0 0.0
2017-Oct-14 14:00N 38°55' W 076°25'0 0.0
2017-Oct-14 13:30N 38°55' W 076°25'0 0.0
2017-Oct-14 13:00N 38°55' W 076°25'0 0.1
2017-Oct-14 12:30N 38°55' W 076°25'0 0.0
2017-Oct-14 12:00N 38°55' W 076°25'0 0.0
2017-Oct-14 11:30N 38°55' W 076°25'0 0.1
2017-Oct-14 11:00N 38°55' W 076°25'0 0.0
2017-Oct-14 10:30N 38°55' W 076°25'0 0.0
2017-Oct-14 10:00N 38°55' W 076°25'0 0.0
2017-Oct-14 09:30N 38°55' W 076°25'0 0.0
2017-Oct-14 09:00N 38°55' W 076°25'0 0.0
2017-Oct-14 08:31N 38°55' W 076°25'0 0.0
2017-Oct-14 08:00N 38°55' W 076°25'0 0.0
2017-Oct-14 07:31N 38°55' W 076°25'0 0.0
2017-Oct-14 07:00N 38°55' W 076°25'0 0.1
2017-Oct-14 06:30N 38°55' W 076°25'0 0.2
2017-Oct-14 06:00N 38°55' W 076°25'0 0.1
2017-Oct-14 05:30N 38°55' W 076°25'0 0.1
2017-Oct-14 05:00N 38°55' W 076°25'0 0.0
2017-Oct-14 04:30N 38°55' W 076°25'0 0.0
2017-Oct-14 04:00N 38°55' W 076°25'0 0.1
2017-Oct-14 03:30N 38°55' W 076°25'0 0.1
2017-Oct-14 03:00N 38°55' W 076°25'0 0.1
2017-Oct-14 02:30N 38°55' W 076°25'0 0.1
2017-Oct-14 02:00N 38°55' W 076°25'0 0.0
2017-Oct-13 23:18N 38°55' W 076°25'0 0.0
2017-Oct-13 23:00N 38°55' W 076°25'0 0.0
2017-Oct-13 22:30N 38°55' W 076°25'0 0.0
2017-Oct-13 22:00N 38°55' W 076°25'0 0.0
2017-Oct-13 21:30N 38°55' W 076°25'0 0.0
2017-Oct-13 21:00N 38°55' W 076°25'0 0.0
2017-Oct-13 20:30N 38°55' W 076°25'0 0.0
2017-Oct-13 20:00N 38°55' W 076°25'0 0.1
2017-Oct-13 19:30N 38°55' W 076°25'0 0.1
2017-Oct-13 19:00N 38°55' W 076°25'0 0.1
2017-Oct-13 18:30N 38°55' W 076°25'0 0.0
2017-Oct-13 18:00N 38°55' W 076°25'0 0.0
2017-Oct-13 17:30N 38°55' W 076°25'0 0.1
2017-Oct-13 17:00N 38°55' W 076°25'0 0.1
2017-Oct-13 16:27N 38°55' W 076°25'0 0.0
2017-Oct-13 16:00N 38°55' W 076°25'0 0.0
2017-Oct-13 15:30N 38°55' W 076°25'0 0.0
2017-Oct-13 15:00N 38°55' W 076°25'0 0.0
2017-Oct-13 14:30N 38°55' W 076°25'0 0.0
2017-Oct-13 14:00N 38°55' W 076°25'0 0.0
2017-Oct-13 13:30N 38°55' W 076°25'0 0.0
2017-Oct-13 13:00N 38°55' W 076°25'0 0.0
2017-Oct-13 12:30N 38°55' W 076°25'0 0.0
2017-Oct-13 12:00N 38°55' W 076°25'0 0.0
2017-Oct-13 11:30N 38°55' W 076°25'0 0.0
2017-Oct-13 11:00N 38°55' W 076°25'0 0.0
2017-Oct-13 10:30N 38°55' W 076°25'0 0.0
2017-Oct-13 10:00N 38°55' W 076°25'0 0.0
2017-Oct-13 09:30N 38°55' W 076°25'0 0.0
2017-Oct-13 09:00N 38°55' W 076°25'0 0.0
2017-Oct-13 08:30N 38°55' W 076°25'0 0.0
2017-Oct-13 08:00N 38°55' W 076°25'0 0.0
2017-Oct-13 07:30N 38°55' W 076°25'0 0.0
2017-Oct-13 07:00N 38°55' W 076°25'0 0.1
2017-Oct-13 06:30N 38°55' W 076°25'0 0.1
2017-Oct-13 06:00N 38°55' W 076°25'0 0.1
2017-Oct-13 05:30N 38°55' W 076°25'0 0.1
2017-Oct-13 05:00N 38°55' W 076°25'0 0.1
2017-Oct-13 04:30N 38°55' W 076°25'0 0.0
2017-Oct-13 04:00N 38°55' W 076°25'0 0.0
2017-Oct-13 03:30N 38°55' W 076°25'0 0.0
2017-Oct-13 02:57N 38°55' W 076°25'0 0.0
2017-Oct-13 02:30N 38°55' W 076°25'0 0.0
2017-Oct-13 01:54N 38°55' W 076°25'0 0.0
2017-Oct-13 01:30N 38°55' W 076°25'0 0.1
2017-Oct-13 01:00N 38°55' W 076°25'0 0.0
2017-Oct-13 00:30N 38°55' W 076°25'0 0.1
2017-Oct-13 00:00N 38°55' W 076°25'0 0.1
2017-Oct-12 23:30N 38°55' W 076°25'0 0.1
2017-Oct-12 23:00N 38°55' W 076°25'0 0.0
2017-Oct-12 22:30N 38°55' W 076°25'0 0.0
2017-Oct-12 22:00N 38°55' W 076°25'0 0.0
2017-Oct-12 21:30N 38°55' W 076°25'0 0.0
2017-Oct-12 21:00N 38°55' W 076°25'0 0.0
2017-Oct-12 20:30N 38°55' W 076°25'0 0.0
2017-Oct-12 20:00N 38°55' W 076°25'0 0.0
2017-Oct-12 19:30N 38°55' W 076°25'0 0.0
2017-Oct-12 19:00N 38°55' W 076°25'0 0.1
2017-Oct-12 18:30N 38°55' W 076°25'0 0.0
2017-Oct-12 18:00N 38°55' W 076°25'0 0.0
2017-Oct-12 17:30N 38°55' W 076°25'0 0.0
2017-Oct-12 16:54N 38°55' W 076°25'0 0.1
2017-Oct-12 16:27N 38°55' W 076°25'0 0.0
2017-Oct-12 16:00N 38°55' W 076°25'0 0.0
2017-Oct-12 15:30N 38°55' W 076°25'0 0.0
2017-Oct-12 15:00N 38°55' W 076°25'0 0.0
2017-Oct-12 14:30N 38°55' W 076°25'0 0.0
2017-Oct-12 14:00N 38°55' W 076°25'0 0.1
2017-Oct-12 13:30N 38°55' W 076°25'0 0.1
2017-Oct-12 13:00N 38°55' W 076°25'0 0.0
2017-Oct-12 12:30N 38°55' W 076°25'0 0.0
2017-Oct-12 12:00N 38°55' W 076°25'0 0.0
2017-Oct-12 11:30N 38°55' W 076°25'0 0.0
2017-Oct-12 11:00N 38°55' W 076°25'0 0.1
2017-Oct-12 10:30N 38°55' W 076°25'0 0.0
2017-Oct-12 10:00N 38°55' W 076°25'0 0.0
2017-Oct-12 09:30N 38°55' W 076°25'0 0.0
2017-Oct-12 09:00N 38°55' W 076°25'0 0.0
2017-Oct-12 08:30N 38°55' W 076°25'0 0.1
2017-Oct-12 08:00N 38°55' W 076°25'0 0.0
2017-Oct-12 07:30N 38°55' W 076°25'0 0.1
2017-Oct-12 07:00N 38°55' W 076°25'0 0.0
2017-Oct-12 06:30N 38°55' W 076°25'0 0.3
2017-Oct-12 05:57N 38°55' W 076°25'0 0.2
2017-Oct-12 05:30N 38°55' W 076°25'0 0.1
2017-Oct-12 05:00N 38°55' W 076°25'0 0.1
2017-Oct-12 04:30N 38°55' W 076°25'0 0.0
2017-Oct-12 04:00N 38°55' W 076°25'0 0.1
2017-Oct-12 03:30N 38°55' W 076°25'0 0.0
2017-Oct-12 03:00N 38°55' W 076°25'0 0.0
2017-Oct-12 02:30N 38°55' W 076°25'0 0.0
2017-Oct-12 02:00N 38°55' W 076°25'0 0.0
2017-Oct-12 01:30N 38°55' W 076°25'0 0.1
2017-Oct-12 01:00N 38°55' W 076°25'0 0.0
2017-Oct-12 00:30N 38°55' W 076°25'0 0.1
2017-Oct-12 00:00N 38°55' W 076°25'0 0.0
2017-Oct-11 23:30N 38°55' W 076°25'0 0.1
2017-Oct-11 23:00N 38°55' W 076°25'0 0.1
2017-Oct-11 22:30N 38°55' W 076°25'0 0.1
2017-Oct-11 22:00N 38°55' W 076°25'0 0.0
2017-Oct-11 21:30N 38°55' W 076°25'0 0.1
2017-Oct-11 21:00N 38°55' W 076°25'0 0.0
2017-Oct-11 20:30N 38°55' W 076°25'0 0.0
2017-Oct-11 20:00N 38°55' W 076°25'0 0.0
2017-Oct-11 19:30N 38°55' W 076°25'0 0.0
2017-Oct-11 19:00N 38°55' W 076°25'0 0.0
2017-Oct-11 18:30N 38°55' W 076°25'0 0.1
2017-Oct-11 18:00N 38°55' W 076°25'0 0.1
2017-Oct-11 17:30N 38°55' W 076°25'0 0.0
2017-Oct-11 17:00N 38°55' W 076°25'0 0.0
2017-Oct-11 00:00N 38°55' W 076°25'0 0.0
2017-Oct-10 23:30N 38°55' W 076°25'0 0.2
2017-Oct-10 23:00N 38°55' W 076°25'0 0.3
2017-Oct-10 22:30N 38°55' W 076°25'0 0.2
2017-Oct-10 22:00N 38°55' W 076°25'0 0.1
2017-Oct-10 21:30N 38°55' W 076°25'0 0.0
2017-Oct-10 21:00N 38°55' W 076°25'0 0.0
2017-Oct-10 20:30N 38°55' W 076°25'0 0.0
2017-Oct-10 20:00N 38°55' W 076°25'0 0.0
2017-Oct-10 19:30N 38°55' W 076°25'0 0.0
2017-Oct-10 19:00N 38°55' W 076°25'0 0.0
2017-Oct-10 18:30N 38°55' W 076°25'0 0.0
2017-Oct-10 18:00N 38°55' W 076°25'0 0.0
2017-Oct-10 17:30N 38°55' W 076°25'0 0.0
2017-Oct-10 17:00N 38°55' W 076°25'0 0.0
2017-Oct-10 16:30N 38°55' W 076°25'0 0.1
2017-Oct-10 16:00N 38°55' W 076°25'0 0.1
2017-Oct-10 15:30N 38°55' W 076°25'0 0.2
2017-Oct-10 15:00N 38°55' W 076°25'0 0.1
2017-Oct-10 14:00N 38°55' W 076°25'0 0.1
2017-Oct-10 13:30N 38°55' W 076°25'0 0.0
2017-Oct-10 13:00N 38°55' W 076°25'0 0.2
2017-Oct-10 12:30N 38°55' W 076°25'0 0.3
2017-Oct-10 12:00N 38°55' W 076°25'0 0.2
2017-Oct-10 11:30N 38°55' W 076°25'0 0.1
2017-Oct-10 11:00N 38°55' W 076°25'0 0.1
2017-Oct-10 10:30N 38°55' W 076°25'0 0.0
2017-Oct-10 10:00N 38°55' W 076°25'0 0.0
2017-Oct-10 09:30N 38°55' W 076°25'0 0.0
2017-Oct-10 09:00N 38°55' W 076°25'0 0.0
2017-Oct-10 08:30N 38°55' W 076°25'0 0.0
2017-Oct-10 08:00N 38°55' W 076°25'0 0.0
2017-Oct-10 07:30N 38°55' W 076°25'0 0.0
2017-Oct-10 07:00N 38°55' W 076°25'0 0.0
2017-Oct-10 06:30N 38°55' W 076°25'0 0.0
2017-Oct-10 06:00N 38°55' W 076°25'0 0.0
2017-Oct-10 05:30N 38°55' W 076°25'0 0.0
2017-Oct-10 05:00N 38°55' W 076°25'0 0.1
2017-Oct-10 04:30N 38°55' W 076°25'0 0.2
2017-Oct-10 04:00N 38°55' W 076°25'0 0.2
2017-Oct-10 03:30N 38°55' W 076°25'0 0.1
2017-Oct-10 03:00N 38°55' W 076°25'0 0.1
2017-Oct-10 02:30N 38°55' W 076°25'0 0.1
2017-Oct-10 02:00N 38°55' W 076°25'0 0.0
2017-Oct-10 01:30N 38°55' W 076°25'0 0.1
2017-Oct-10 01:00N 38°55' W 076°25'0 0.0
2017-Oct-10 00:30N 38°55' W 076°25'0 0.0
2017-Oct-10 00:00N 38°55' W 076°25'0 0.0
2017-Oct-09 23:30N 38°55' W 076°25'0 0.0
2017-Oct-09 23:00N 38°55' W 076°25'0 0.0
2017-Oct-09 22:30N 38°55' W 076°25'0 0.0
2017-Oct-09 22:00N 38°55' W 076°25'0 0.0
2017-Oct-09 21:30N 38°55' W 076°25'0 0.0
2017-Oct-09 21:00N 38°55' W 076°25'0 0.1
2017-Oct-09 20:30N 38°55' W 076°25'0 0.1
2017-Oct-09 20:00N 38°55' W 076°25'0 0.1
2017-Oct-09 19:30N 38°55' W 076°25'0 0.0
2017-Oct-09 19:00N 38°55' W 076°25'0 0.1
2017-Oct-09 18:30N 38°55' W 076°25'0 0.1
2017-Oct-09 18:00N 38°55' W 076°25'0 0.1
2017-Oct-09 17:30N 38°55' W 076°25'0 0.0
2017-Oct-09 17:00N 38°55' W 076°25'0 0.0
2017-Oct-09 16:30N 38°55' W 076°25'0 0.0
2017-Oct-09 16:00N 38°55' W 076°25'0 0.0
2017-Oct-09 15:30N 38°55' W 076°25'0 0.0
2017-Oct-09 15:00N 38°55' W 076°25'0 0.0
2017-Oct-09 14:30N 38°55' W 076°25'0 0.0
2017-Oct-09 14:00N 38°55' W 076°25'0 0.0
2017-Oct-09 13:30N 38°55' W 076°25'0 0.1
2017-Oct-09 13:00N 38°55' W 076°25'0 0.0
2017-Oct-09 12:30N 38°55' W 076°25'0 0.0
2017-Oct-09 12:00N 38°55' W 076°25'0 0.0
2017-Oct-09 11:30N 38°55' W 076°25'0 0.0
2017-Oct-09 11:00N 38°55' W 076°25'0 0.0
2017-Oct-09 10:30N 38°55' W 076°25'0 0.0
2017-Oct-09 10:00N 38°55' W 076°25'0 0.0
2017-Oct-09 09:30N 38°55' W 076°25'0 0.1
2017-Oct-09 09:00N 38°55' W 076°25'0 0.2
2017-Oct-09 08:30N 38°55' W 076°25'0 0.2
2017-Oct-09 08:00N 38°55' W 076°25'0 0.1
2017-Oct-09 07:30N 38°55' W 076°25'0 0.0
2017-Oct-09 07:00N 38°55' W 076°25'0 0.0
2017-Oct-09 06:30N 38°55' W 076°25'0 0.0
2017-Oct-09 06:00N 38°55' W 076°25'0 0.0
2017-Oct-09 05:30N 38°55' W 076°25'0 0.0
2017-Oct-09 05:00N 38°55' W 076°25'0 0.1
2017-Oct-09 04:30N 38°55' W 076°25'0 0.1
2017-Oct-09 04:00N 38°55' W 076°25'0 0.1
2017-Oct-09 03:30N 38°55' W 076°25'0 0.1
2017-Oct-09 03:00N 38°55' W 076°25'0 0.0
2017-Oct-09 02:30N 38°55' W 076°25'0 0.0
2017-Oct-09 02:00N 38°55' W 076°25'0 0.0
2017-Oct-09 01:30N 38°55' W 076°25'0 0.0
2017-Oct-09 01:00N 38°55' W 076°25'0 0.0
2017-Oct-09 00:30N 38°55' W 076°25'0 0.1
2017-Oct-09 00:00N 38°55' W 076°25'0 0.0
2017-Oct-08 23:15N 38°55' W 076°25'0 0.0
2017-Oct-08 22:21N 38°55' W 076°25'0 0.0
2017-Oct-08 21:57N 38°55' W 076°25'0 0.0
2017-Oct-08 21:30N 38°55' W 076°25'0 0.1
2017-Oct-08 21:00N 38°55' W 076°25'0 0.3
2017-Oct-08 20:24N 38°55' W 076°25'0 0.2
2017-Oct-08 20:00N 38°55' W 076°25'0 0.1
2017-Oct-08 19:30N 38°55' W 076°25'0 0.0
2017-Oct-08 19:00N 38°55' W 076°25'0 0.1
2017-Oct-08 18:30N 38°55' W 076°25'0 0.0
2017-Oct-08 18:00N 38°54' W 076°25'0 0.0
2017-Oct-08 17:30N 38°55' W 076°25'0 0.0
2017-Oct-08 17:00N 38°55' W 076°25'0 0.0
2017-Oct-08 16:30N 38°55' W 076°25'0 0.1
2017-Oct-08 16:00N 38°55' W 076°25'0 0.0
2017-Oct-08 15:30N 38°55' W 076°25'0 0.2
2017-Oct-08 15:00N 38°55' W 076°25'3 5.2
2017-Oct-08 14:30N 38°52' W 076°25'611.2
2017-Oct-08 14:00N 38°46' W 076°26'713.4
2017-Oct-08 13:30N 38°40' W 076°25'2314.2
2017-Oct-08 11:54N 38°18' W 076°18'1714.4
2017-Oct-08 10:42N 38°01' W 076°13'  
Track history (hours):
 
Tides and Currents Weather Stations Pressure Air Temp Water Temp Dewpoint Dewpoint Depression Visibility Wind Speed Wind Dir Waves Ship Positions

Grayzone

Last reported at 2017-Oct-18 09:42 UTC. Time now 2017-Oct-20 08:50 UTC.
Position N 36°51' W 075°50'.

; draft 2.6 m.

Type: Pilot. MMSI: 23009000.

Date/timePositionNaut miles runAvg speedWind from/ knotsBaromVisibWave heightAir tempDewpointWater temp
2017-Oct-18 09:42N 36°51' W 075°50'210.7
2017-Oct-18 09:30N 36°52' W 075°52'5 9.9
2017-Oct-18 09:00N 36°56' W 075°57'4 8.6
2017-Oct-18 08:29N 36°59' W 076°00'4 9.1
2017-Oct-18 08:00N 37°02' W 076°04'57 9.2
2017-Oct-18 01:52N 37°59' W 076°11'512.2
2017-Oct-18 01:29N 38°03' W 076°13'612.5
2017-Oct-18 01:00N 38°09' W 076°14'3513.0
2017-Oct-17 22:18N 38°43' W 076°26'412.7
2017-Oct-17 22:00N 38°47' W 076°25'612.5
2017-Oct-17 21:31N 38°53' W 076°24'510.6
2017-Oct-17 21:00N 38°58' W 076°23'4 8.0
2017-Oct-17 20:30N 39°02' W 076°23'4 8.0
2017-Oct-17 20:00N 39°06' W 076°24'3 6.7
2017-Oct-17 19:30N 39°09' W 076°25'3 6.9
2017-Oct-17 19:00N 39°11' W 076°28'3 6.9
2017-Oct-17 18:31N 39°13' W 076°32'2 4.7
2017-Oct-17 18:00N 39°15' W 076°34'0 0.4
2017-Oct-17 17:28N 39°15' W 076°34'0 0.0
2017-Oct-17 16:58N 39°15' W 076°34'0 0.0
2017-Oct-17 16:28N 39°15' W 076°34'0 0.0
2017-Oct-17 15:58N 39°15' W 076°34'0 0.0
2017-Oct-17 15:28N 39°15' W 076°34'0 0.0
2017-Oct-17 14:58N 39°15' W 076°34'0 0.0
2017-Oct-17 14:28N 39°15' W 076°34'0 0.0
2017-Oct-17 13:58N 39°15' W 076°34'0 0.0
2017-Oct-17 13:28N 39°15' W 076°34'0 0.0
2017-Oct-17 12:58N 39°15' W 076°34'0 0.0
2017-Oct-17 12:28N 39°15' W 076°34'0 0.0
2017-Oct-17 11:58N 39°15' W 076°34'0 0.0
2017-Oct-17 11:28N 39°15' W 076°34'0 0.0
2017-Oct-17 10:58N 39°15' W 076°34'0 0.0
2017-Oct-17 10:28N 39°15' W 076°34'0 0.0
2017-Oct-17 09:58N 39°15' W 076°34'0 0.0
2017-Oct-17 09:28N 39°15' W 076°34'0 0.0
2017-Oct-17 08:58N 39°15' W 076°34'0 0.0
2017-Oct-17 08:28N 39°15' W 076°34'0 0.0
2017-Oct-17 07:58N 39°15' W 076°34'0 0.0
2017-Oct-17 07:28N 39°15' W 076°34'0 0.0
2017-Oct-17 06:58N 39°15' W 076°34'0 0.0
2017-Oct-17 06:28N 39°15' W 076°34'0 0.0
2017-Oct-17 05:58N 39°15' W 076°34'0 0.0
2017-Oct-17 05:28N 39°15' W 076°34'0 0.0
2017-Oct-17 04:58N 39°15' W 076°34'0 0.0
2017-Oct-17 04:28N 39°15' W 076°34'0 0.0
2017-Oct-17 03:58N 39°15' W 076°34'0 0.0
2017-Oct-17 03:16N 39°15' W 076°34'0 0.0
2017-Oct-17 02:58N 39°15' W 076°34'0 0.0
2017-Oct-17 02:28N 39°15' W 076°34'0 0.0
2017-Oct-17 01:58N 39°15' W 076°34'0 0.0
2017-Oct-17 01:28N 39°15' W 076°34'0 0.0
2017-Oct-17 00:58N 39°15' W 076°34'0 0.0
2017-Oct-17 00:28N 39°15' W 076°34'0 0.0
2017-Oct-16 23:58N 39°15' W 076°34'0 0.0
2017-Oct-16 23:28N 39°15' W 076°34'0 0.0
2017-Oct-16 22:58N 39°15' W 076°34'0 0.0
2017-Oct-16 22:28N 39°15' W 076°34'0 0.0
2017-Oct-16 21:58N 39°15' W 076°34'0 0.0
2017-Oct-16 21:28N 39°15' W 076°34'0 0.0
2017-Oct-16 20:59N 39°15' W 076°34'0 0.0
2017-Oct-16 20:28N 39°15' W 076°34'0 0.0
2017-Oct-16 19:58N 39°15' W 076°34'0 0.0
2017-Oct-16 19:29N 39°15' W 076°34'0 0.0
2017-Oct-16 18:59N 39°15' W 076°34'0 0.0
2017-Oct-16 18:28N 39°15' W 076°34'0 0.0
2017-Oct-16 17:58N 39°15' W 076°34'0 0.0
2017-Oct-16 17:28N 39°15' W 076°34'0 0.0
2017-Oct-16 16:58N 39°15' W 076°34'0 0.0
2017-Oct-16 16:28N 39°15' W 076°34'0 0.0
2017-Oct-16 15:58N 39°15' W 076°34'0 0.0
2017-Oct-16 15:28N 39°15' W 076°34'0 0.0
2017-Oct-16 14:58N 39°15' W 076°34'0 0.0
2017-Oct-16 14:28N 39°15' W 076°34'0 0.0
2017-Oct-16 13:28N 39°15' W 076°34'0 0.0
2017-Oct-16 12:55N 39°15' W 076°34'0 0.0
2017-Oct-16 12:28N 39°15' W 076°34'0 0.0
2017-Oct-16 11:58N 39°15' W 076°34'0 0.0
2017-Oct-16 11:28N 39°15' W 076°34'0 0.0
2017-Oct-16 10:58N 39°15' W 076°34'0 0.0
2017-Oct-16 10:28N 39°15' W 076°34'0 0.0
2017-Oct-16 09:58N 39°15' W 076°34'0 0.0
2017-Oct-16 09:28N 39°15' W 076°34'0 0.0
2017-Oct-16 08:58N 39°15' W 076°34'0 0.0
2017-Oct-16 08:28N 39°15' W 076°34'0 0.0
2017-Oct-16 07:58N 39°15' W 076°34'0 0.0
2017-Oct-16 07:28N 39°15' W 076°34'0 0.0
2017-Oct-16 06:58N 39°15' W 076°34'0 0.0
2017-Oct-16 06:28N 39°15' W 076°34'0 0.0
2017-Oct-16 05:58N 39°15' W 076°34'0 0.0
2017-Oct-16 05:28N 39°15' W 076°34'0 0.0
2017-Oct-16 04:58N 39°15' W 076°34'0 0.0
2017-Oct-16 04:28N 39°15' W 076°34'0 0.0
2017-Oct-16 03:58N 39°15' W 076°34'0 0.0
2017-Oct-16 03:28N 39°15' W 076°34'0 0.0
2017-Oct-16 02:58N 39°15' W 076°34'0 0.0
2017-Oct-16 02:28N 39°15' W 076°34'0 0.0
2017-Oct-16 01:58N 39°15' W 076°34'0 0.0
2017-Oct-16 01:28N 39°15' W 076°34'0 0.0
2017-Oct-16 00:58N 39°15' W 076°34'0 0.0
2017-Oct-16 00:25N 39°15' W 076°34'0 0.0
2017-Oct-15 23:58N 39°15' W 076°34'0 0.0
2017-Oct-15 23:28N 39°15' W 076°34'0 0.0
2017-Oct-15 22:58N 39°15' W 076°34'0 0.0
2017-Oct-15 22:30N 39°15' W 076°34'1 1.6
2017-Oct-15 22:00N 39°15' W 076°33'4 7.7
2017-Oct-15 21:30N 39°12' W 076°30'510.9
2017-Oct-15 21:00N 39°09' W 076°24'612.1
2017-Oct-15 20:30N 39°03' W 076°23'612.0
2017-Oct-15 20:00N 38°57' W 076°24'3 5.1
2017-Oct-15 19:30N 38°54' W 076°25'1 1.1
2017-Oct-15 19:01N 38°55' W 076°25'0 0.1
2017-Oct-15 18:28N 38°55' W 076°25'0 0.0
2017-Oct-15 17:58N 38°55' W 076°25'0 0.0
2017-Oct-15 17:28N 38°55' W 076°25'0 0.0
2017-Oct-15 16:58N 38°55' W 076°25'0 0.0
2017-Oct-15 16:31N 38°55' W 076°25'0 0.0
2017-Oct-15 15:58N 38°55' W 076°25'0 0.0
2017-Oct-15 15:31N 38°55' W 076°25'0 0.2
2017-Oct-15 14:58N 38°55' W 076°25'0 0.2
2017-Oct-15 13:58N 38°55' W 076°25'0 0.1
2017-Oct-15 13:31N 38°55' W 076°25'0 0.0
2017-Oct-15 13:01N 38°55' W 076°25'0 0.0
2017-Oct-15 12:31N 38°55' W 076°25'0 0.0
2017-Oct-15 12:00N 38°55' W 076°25'0 0.0
2017-Oct-15 11:28N 38°55' W 076°25'0 0.0
2017-Oct-15 10:58N 38°55' W 076°25'0 0.1
2017-Oct-15 10:31N 38°55' W 076°25'0 0.2
2017-Oct-15 10:01N 38°55' W 076°25'0 0.2
2017-Oct-15 09:25N 38°55' W 076°25'0 0.1
2017-Oct-15 09:01N 38°55' W 076°25'0 0.0
2017-Oct-15 08:28N 38°55' W 076°25'0 0.1
2017-Oct-15 08:00N 38°55' W 076°25'0 0.0
2017-Oct-15 07:30N 38°55' W 076°25'0 0.0
2017-Oct-15 07:01N 38°55' W 076°25'0 0.0
2017-Oct-15 06:30N 38°55' W 076°25'0 0.0
2017-Oct-15 05:58N 38°55' W 076°25'0 0.0
2017-Oct-15 05:31N 38°55' W 076°25'0 0.0
2017-Oct-15 05:00N 38°55' W 076°25'0 0.0
2017-Oct-15 04:30N 38°55' W 076°25'0 0.0
2017-Oct-15 03:57N 38°55' W 076°25'0 0.1
2017-Oct-15 03:28N 38°55' W 076°25'0 0.2
2017-Oct-15 03:01N 38°55' W 076°25'0 0.3
2017-Oct-15 02:31N 38°55' W 076°25'0 0.1
2017-Oct-15 02:00N 38°55' W 076°25'0 0.0
2017-Oct-15 01:30N 38°55' W 076°25'0 0.0
2017-Oct-15 01:00N 38°55' W 076°25'0 0.0
2017-Oct-15 00:30N 38°55' W 076°25'0 0.0
2017-Oct-15 00:00N 38°55' W 076°25'0 0.0
2017-Oct-14 23:30N 38°55' W 076°25'0 0.0
2017-Oct-14 23:00N 38°55' W 076°25'0 0.0
2017-Oct-14 22:30N 38°55' W 076°25'0 0.0
2017-Oct-14 22:00N 38°55' W 076°25'0 0.0
2017-Oct-14 21:30N 38°55' W 076°25'0 0.0
2017-Oct-14 21:00N 38°55' W 076°25'0 0.0
2017-Oct-14 20:30N 38°55' W 076°25'0 0.1
2017-Oct-14 20:00N 38°55' W 076°25'0 0.1
2017-Oct-14 19:30N 38°55' W 076°25'0 0.1
2017-Oct-14 19:01N 38°55' W 076°25'0 0.1
2017-Oct-14 18:30N 38°55' W 076°25'0 0.0
2017-Oct-14 18:01N 38°55' W 076°25'0 0.1
2017-Oct-14 17:30N 38°55' W 076°25'0 0.1
2017-Oct-14 17:00N 38°55' W 076°25'0 0.1
2017-Oct-14 16:30N 38°55' W 076°25'0 0.0
2017-Oct-14 16:00N 38°55' W 076°25'0 0.0
2017-Oct-14 15:30N 38°55' W 076°25'0 0.0
2017-Oct-14 15:01N 38°55' W 076°25'0 0.0
2017-Oct-14 14:31N 38°55' W 076°25'0 0.0
2017-Oct-14 14:00N 38°55' W 076°25'0 0.0
2017-Oct-14 13:30N 38°55' W 076°25'0 0.0
2017-Oct-14 13:00N 38°55' W 076°25'0 0.1
2017-Oct-14 12:30N 38°55' W 076°25'0 0.0
2017-Oct-14 12:00N 38°55' W 076°25'0 0.0
2017-Oct-14 11:30N 38°55' W 076°25'0 0.1
2017-Oct-14 11:00N 38°55' W 076°25'0 0.0
2017-Oct-14 10:30N 38°55' W 076°25'0 0.0
2017-Oct-14 10:00N 38°55' W 076°25'0 0.0
2017-Oct-14 09:30N 38°55' W 076°25'0 0.0
2017-Oct-14 09:00N 38°55' W 076°25'0 0.0
2017-Oct-14 08:31N 38°55' W 076°25'0 0.0
2017-Oct-14 08:00N 38°55' W 076°25'0 0.0
2017-Oct-14 07:31N 38°55' W 076°25'0 0.0
2017-Oct-14 07:00N 38°55' W 076°25'0 0.1
2017-Oct-14 06:30N 38°55' W 076°25'0 0.2
2017-Oct-14 06:00N 38°55' W 076°25'0 0.1
2017-Oct-14 05:30N 38°55' W 076°25'0 0.1
2017-Oct-14 05:00N 38°55' W 076°25'0 0.0
2017-Oct-14 04:30N 38°55' W 076°25'0 0.0
2017-Oct-14 04:00N 38°55' W 076°25'0 0.1
2017-Oct-14 03:30N 38°55' W 076°25'0 0.1
2017-Oct-14 03:00N 38°55' W 076°25'0 0.1
2017-Oct-14 02:30N 38°55' W 076°25'0 0.1
2017-Oct-14 02:00N 38°55' W 076°25'0 0.0
2017-Oct-13 23:18N 38°55' W 076°25'0 0.0
2017-Oct-13 23:00N 38°55' W 076°25'0 0.0
2017-Oct-13 22:30N 38°55' W 076°25'0 0.0
2017-Oct-13 22:00N 38°55' W 076°25'0 0.0
2017-Oct-13 21:30N 38°55' W 076°25'0 0.0
2017-Oct-13 21:00N 38°55' W 076°25'0 0.0
2017-Oct-13 20:30N 38°55' W 076°25'0 0.0
2017-Oct-13 20:00N 38°55' W 076°25'0 0.1
2017-Oct-13 19:30N 38°55' W 076°25'0 0.1
2017-Oct-13 19:00N 38°55' W 076°25'0 0.1
2017-Oct-13 18:30N 38°55' W 076°25'0 0.0
2017-Oct-13 18:00N 38°55' W 076°25'0 0.0
2017-Oct-13 17:30N 38°55' W 076°25'0 0.1
2017-Oct-13 17:00N 38°55' W 076°25'0 0.1
2017-Oct-13 16:27N 38°55' W 076°25'0 0.0
2017-Oct-13 16:00N 38°55' W 076°25'0 0.0
2017-Oct-13 15:30N 38°55' W 076°25'0 0.0
2017-Oct-13 15:00N 38°55' W 076°25'0 0.0
2017-Oct-13 14:30N 38°55' W 076°25'0 0.0
2017-Oct-13 14:00N 38°55' W 076°25'0 0.0
2017-Oct-13 13:30N 38°55' W 076°25'0 0.0
2017-Oct-13 13:00N 38°55' W 076°25'0 0.0
2017-Oct-13 12:30N 38°55' W 076°25'0 0.0
2017-Oct-13 12:00N 38°55' W 076°25'0 0.0
2017-Oct-13 11:30N 38°55' W 076°25'0 0.0
2017-Oct-13 11:00N 38°55' W 076°25'0 0.0
2017-Oct-13 10:30N 38°55' W 076°25'0 0.0
2017-Oct-13 10:00N 38°55' W 076°25'0 0.0
2017-Oct-13 09:30N 38°55' W 076°25'0 0.0
2017-Oct-13 09:00N 38°55' W 076°25'0 0.0
2017-Oct-13 08:30N 38°55' W 076°25'0 0.0
2017-Oct-13 08:00N 38°55' W 076°25'0 0.0
2017-Oct-13 07:30N 38°55' W 076°25'0 0.0
2017-Oct-13 07:00N 38°55' W 076°25'0 0.1
2017-Oct-13 06:30N 38°55' W 076°25'0 0.1
2017-Oct-13 06:00N 38°55' W 076°25'0 0.1
2017-Oct-13 05:30N 38°55' W 076°25'0 0.1
2017-Oct-13 05:00N 38°55' W 076°25'0 0.1
2017-Oct-13 04:30N 38°55' W 076°25'0 0.0
2017-Oct-13 04:00N 38°55' W 076°25'0 0.0
2017-Oct-13 03:30N 38°55' W 076°25'0 0.0
2017-Oct-13 02:57N 38°55' W 076°25'0 0.0
2017-Oct-13 02:30N 38°55' W 076°25'0 0.0
2017-Oct-13 01:54N 38°55' W 076°25'0 0.0
2017-Oct-13 01:30N 38°55' W 076°25'0 0.1
2017-Oct-13 01:00N 38°55' W 076°25'0 0.0
2017-Oct-13 00:30N 38°55' W 076°25'0 0.1
2017-Oct-13 00:00N 38°55' W 076°25'0 0.1
2017-Oct-12 23:30N 38°55' W 076°25'0 0.1
2017-Oct-12 23:00N 38°55' W 076°25'0 0.0
2017-Oct-12 22:30N 38°55' W 076°25'0 0.0
2017-Oct-12 22:00N 38°55' W 076°25'0 0.0
2017-Oct-12 21:30N 38°55' W 076°25'0 0.0
2017-Oct-12 21:00N 38°55' W 076°25'0 0.0
2017-Oct-12 20:30N 38°55' W 076°25'0 0.0
2017-Oct-12 20:00N 38°55' W 076°25'0 0.0
2017-Oct-12 19:30N 38°55' W 076°25'0 0.0
2017-Oct-12 19:00N 38°55' W 076°25'0 0.1
2017-Oct-12 18:30N 38°55' W 076°25'0 0.0
2017-Oct-12 18:00N 38°55' W 076°25'0 0.0
2017-Oct-12 17:30N 38°55' W 076°25'0 0.0
2017-Oct-12 16:54N 38°55' W 076°25'0 0.1
2017-Oct-12 16:27N 38°55' W 076°25'0 0.0
2017-Oct-12 16:00N 38°55' W 076°25'0 0.0
2017-Oct-12 15:30N 38°55' W 076°25'0 0.0
2017-Oct-12 15:00N 38°55' W 076°25'0 0.0
2017-Oct-12 14:30N 38°55' W 076°25'0 0.0
2017-Oct-12 14:00N 38°55' W 076°25'0 0.1
2017-Oct-12 13:30N 38°55' W 076°25'0 0.1
2017-Oct-12 13:00N 38°55' W 076°25'0 0.0
2017-Oct-12 12:30N 38°55' W 076°25'0 0.0
2017-Oct-12 12:00N 38°55' W 076°25'0 0.0
2017-Oct-12 11:30N 38°55' W 076°25'0 0.0
2017-Oct-12 11:00N 38°55' W 076°25'0 0.1
2017-Oct-12 10:30N 38°55' W 076°25'0 0.0
2017-Oct-12 10:00N 38°55' W 076°25'0 0.0
2017-Oct-12 09:30N 38°55' W 076°25'0 0.0
2017-Oct-12 09:00N 38°55' W 076°25'0 0.0
2017-Oct-12 08:30N 38°55' W 076°25'0 0.1
2017-Oct-12 08:00N 38°55' W 076°25'0 0.0
2017-Oct-12 07:30N 38°55' W 076°25'0 0.1
2017-Oct-12 07:00N 38°55' W 076°25'0 0.0
2017-Oct-12 06:30N 38°55' W 076°25'0 0.3
2017-Oct-12 05:57N 38°55' W 076°25'0 0.2
2017-Oct-12 05:30N 38°55' W 076°25'0 0.1
2017-Oct-12 05:00N 38°55' W 076°25'0 0.1
2017-Oct-12 04:30N 38°55' W 076°25'0 0.0
2017-Oct-12 04:00N 38°55' W 076°25'0 0.1
2017-Oct-12 03:30N 38°55' W 076°25'0 0.0
2017-Oct-12 03:00N 38°55' W 076°25'0 0.0
2017-Oct-12 02:30N 38°55' W 076°25'0 0.0
2017-Oct-12 02:00N 38°55' W 076°25'0 0.0
2017-Oct-12 01:30N 38°55' W 076°25'0 0.1
2017-Oct-12 01:00N 38°55' W 076°25'0 0.0
2017-Oct-12 00:30N 38°55' W 076°25'0 0.1
2017-Oct-12 00:00N 38°55' W 076°25'0 0.0
2017-Oct-11 23:30N 38°55' W 076°25'0 0.1
2017-Oct-11 23:00N 38°55' W 076°25'0 0.1
2017-Oct-11 22:30N 38°55' W 076°25'0 0.1
2017-Oct-11 22:00N 38°55' W 076°25'0 0.0
2017-Oct-11 21:30N 38°55' W 076°25'0 0.1
2017-Oct-11 21:00N 38°55' W 076°25'0 0.0
2017-Oct-11 20:30N 38°55' W 076°25'0 0.0
2017-Oct-11 20:00N 38°55' W 076°25'0 0.0
2017-Oct-11 19:30N 38°55' W 076°25'0 0.0
2017-Oct-11 19:00N 38°55' W 076°25'0 0.0
2017-Oct-11 18:30N 38°55' W 076°25'0 0.1
2017-Oct-11 18:00N 38°55' W 076°25'0 0.1
2017-Oct-11 17:30N 38°55' W 076°25'0 0.0
2017-Oct-11 17:00N 38°55' W 076°25'0 0.0
2017-Oct-11 00:00N 38°55' W 076°25'0 0.0
2017-Oct-10 23:30N 38°55' W 076°25'0 0.2
2017-Oct-10 23:00N 38°55' W 076°25'0 0.3
2017-Oct-10 22:30N 38°55' W 076°25'0 0.2
2017-Oct-10 22:00N 38°55' W 076°25'0 0.1
2017-Oct-10 21:30N 38°55' W 076°25'0 0.0
2017-Oct-10 21:00N 38°55' W 076°25'0 0.0
2017-Oct-10 20:30N 38°55' W 076°25'0 0.0
2017-Oct-10 20:00N 38°55' W 076°25'0 0.0
2017-Oct-10 19:30N 38°55' W 076°25'0 0.0
2017-Oct-10 19:00N 38°55' W 076°25'0 0.0
2017-Oct-10 18:30N 38°55' W 076°25'0 0.0
2017-Oct-10 18:00N 38°55' W 076°25'0 0.0
2017-Oct-10 17:30N 38°55' W 076°25'0 0.0
2017-Oct-10 17:00N 38°55' W 076°25'0 0.0
2017-Oct-10 16:30N 38°55' W 076°25'0 0.1
2017-Oct-10 16:00N 38°55' W 076°25'0 0.1
2017-Oct-10 15:30N 38°55' W 076°25'0 0.2
2017-Oct-10 15:00N 38°55' W 076°25'0 0.1
2017-Oct-10 14:00N 38°55' W 076°25'0 0.1
2017-Oct-10 13:30N 38°55' W 076°25'0 0.0
2017-Oct-10 13:00N 38°55' W 076°25'0 0.2
2017-Oct-10 12:30N 38°55' W 076°25'0 0.3
2017-Oct-10 12:00N 38°55' W 076°25'0 0.2
2017-Oct-10 11:30N 38°55' W 076°25'0 0.1
2017-Oct-10 11:00N 38°55' W 076°25'0 0.1
2017-Oct-10 10:30N 38°55' W 076°25'0 0.0
2017-Oct-10 10:00N 38°55' W 076°25'0 0.0
2017-Oct-10 09:30N 38°55' W 076°25'0 0.0
2017-Oct-10 09:00N 38°55' W 076°25'0 0.0
2017-Oct-10 08:30N 38°55' W 076°25'0 0.0
2017-Oct-10 08:00N 38°55' W 076°25'0 0.0
2017-Oct-10 07:30N 38°55' W 076°25'0 0.0
2017-Oct-10 07:00N 38°55' W 076°25'0 0.0
2017-Oct-10 06:30N 38°55' W 076°25'0 0.0
2017-Oct-10 06:00N 38°55' W 076°25'0 0.0
2017-Oct-10 05:30N 38°55' W 076°25'0 0.0
2017-Oct-10 05:00N 38°55' W 076°25'0 0.1
2017-Oct-10 04:30N 38°55' W 076°25'0 0.2
2017-Oct-10 04:00N 38°55' W 076°25'0 0.2
2017-Oct-10 03:30N 38°55' W 076°25'0 0.1
2017-Oct-10 03:00N 38°55' W 076°25'0 0.1
2017-Oct-10 02:30N 38°55' W 076°25'0 0.1
2017-Oct-10 02:00N 38°55' W 076°25'0 0.0
2017-Oct-10 01:30N 38°55' W 076°25'0 0.1
2017-Oct-10 01:00N 38°55' W 076°25'0 0.0
2017-Oct-10 00:30N 38°55' W 076°25'0 0.0
2017-Oct-10 00:00N 38°55' W 076°25'0 0.0
2017-Oct-09 23:30N 38°55' W 076°25'0 0.0
2017-Oct-09 23:00N 38°55' W 076°25'0 0.0
2017-Oct-09 22:30N 38°55' W 076°25'0 0.0
2017-Oct-09 22:00N 38°55' W 076°25'0 0.0
2017-Oct-09 21:30N 38°55' W 076°25'0 0.0
2017-Oct-09 21:00N 38°55' W 076°25'0 0.1
2017-Oct-09 20:30N 38°55' W 076°25'0 0.1
2017-Oct-09 20:00N 38°55' W 076°25'0 0.1
2017-Oct-09 19:30N 38°55' W 076°25'0 0.0
2017-Oct-09 19:00N 38°55' W 076°25'0 0.1
2017-Oct-09 18:30N 38°55' W 076°25'0 0.1
2017-Oct-09 18:00N 38°55' W 076°25'0 0.1
2017-Oct-09 17:30N 38°55' W 076°25'0 0.0
2017-Oct-09 17:00N 38°55' W 076°25'0 0.0
2017-Oct-09 16:30N 38°55' W 076°25'0 0.0
2017-Oct-09 16:00N 38°55' W 076°25'0 0.0
2017-Oct-09 15:30N 38°55' W 076°25'0 0.0
2017-Oct-09 15:00N 38°55' W 076°25'0 0.0
2017-Oct-09 14:30N 38°55' W 076°25'0 0.0
2017-Oct-09 14:00N 38°55' W 076°25'0 0.0
2017-Oct-09 13:30N 38°55' W 076°25'0 0.1
2017-Oct-09 13:00N 38°55' W 076°25'0 0.0
2017-Oct-09 12:30N 38°55' W 076°25'0 0.0
2017-Oct-09 12:00N 38°55' W 076°25'0 0.0
2017-Oct-09 11:30N 38°55' W 076°25'0 0.0
2017-Oct-09 11:00N 38°55' W 076°25'0 0.0
2017-Oct-09 10:30N 38°55' W 076°25'0 0.0
2017-Oct-09 10:00N 38°55' W 076°25'0 0.0
2017-Oct-09 09:30N 38°55' W 076°25'0 0.1
2017-Oct-09 09:00N 38°55' W 076°25'0 0.2
2017-Oct-09 08:30N 38°55' W 076°25'0 0.2
2017-Oct-09 08:00N 38°55' W 076°25'0 0.1
2017-Oct-09 07:30N 38°55' W 076°25'0 0.0
2017-Oct-09 07:00N 38°55' W 076°25'0 0.0
2017-Oct-09 06:30N 38°55' W 076°25'0 0.0
2017-Oct-09 06:00N 38°55' W 076°25'0 0.0
2017-Oct-09 05:30N 38°55' W 076°25'0 0.0
2017-Oct-09 05:00N 38°55' W 076°25'0 0.1
2017-Oct-09 04:30N 38°55' W 076°25'0 0.1
2017-Oct-09 04:00N 38°55' W 076°25'0 0.1
2017-Oct-09 03:30N 38°55' W 076°25'0 0.1
2017-Oct-09 03:00N 38°55' W 076°25'0 0.0
2017-Oct-09 02:30N 38°55' W 076°25'0 0.0
2017-Oct-09 02:00N 38°55' W 076°25'0 0.0
2017-Oct-09 01:30N 38°55' W 076°25'0 0.0
2017-Oct-09 01:00N 38°55' W 076°25'0 0.0
2017-Oct-09 00:30N 38°55' W 076°25'0 0.1
2017-Oct-09 00:00N 38°55' W 076°25'0 0.0
2017-Oct-08 23:15N 38°55' W 076°25'0 0.0
2017-Oct-08 22:21N 38°55' W 076°25'0 0.0
2017-Oct-08 21:57N 38°55' W 076°25'0 0.0
2017-Oct-08 21:30N 38°55' W 076°25'0 0.1
2017-Oct-08 21:00N 38°55' W 076°25'0 0.3
2017-Oct-08 20:24N 38°55' W 076°25'0 0.2
2017-Oct-08 20:00N 38°55' W 076°25'0 0.1
2017-Oct-08 19:30N 38°55' W 076°25'0 0.0
2017-Oct-08 19:00N 38°55' W 076°25'0 0.1
2017-Oct-08 18:30N 38°55' W 076°25'0 0.0
2017-Oct-08 18:00N 38°54' W 076°25'0 0.0
2017-Oct-08 17:30N 38°55' W 076°25'0 0.0
2017-Oct-08 17:00N 38°55' W 076°25'0 0.0
2017-Oct-08 16:30N 38°55' W 076°25'0 0.1
2017-Oct-08 16:00N 38°55' W 076°25'0 0.0
2017-Oct-08 15:30N 38°55' W 076°25'0 0.2
2017-Oct-08 15:00N 38°55' W 076°25'3 5.2
2017-Oct-08 14:30N 38°52' W 076°25'611.2
2017-Oct-08 14:00N 38°46' W 076°26'713.4
2017-Oct-08 13:30N 38°40' W 076°25'2314.2
2017-Oct-08 11:54N 38°18' W 076°18'1714.4
2017-Oct-08 10:42N 38°01' W 076°13'  

Dump ship's entire track history